Time;durP1;ratioP1;P1;durP2;ratioP2;P2;SDS_P1;SDS_P2;PMS_P1;PMS_P2;Temp;Humidity;BMP_temperature;BMP_pressure;BME280_temperature;BME280_humidity;BME280_pressure;Samples;Min_cycle;Max_cycle;Signal;HPM_P1;HPM_P2
2023/10/01 00:01:46;;;;;;;8.57;3.33;;;;;;;18.17;45.57;99817.59;5112340;27;20049;-88
2023/10/01 00:04:12;;;;;;;8.07;3.20;;;;;;;18.17;45.14;99810.44;5111600;28;20063;-87
2023/10/01 00:06:39;;;;;;;10.48;3.45;;;;;;;18.31;44.61;99855.22;5092737;28;20036;-87
2023/10/01 00:09:07;;;;;;;8.13;3.50;;;;;;;18.52;45.24;99873.88;5111206;28;20394;-87
2023/10/01 00:11:39;;;;;;;7.55;2.22;;;;;;;17.94;45.28;99791.91;5093979;28;20035;-86
2023/10/01 00:14:08;;;;;;;5.93;3.33;;;;;;;18.27;44.83;99826.91;5091790;28;20428;-86
2023/10/01 00:16:37;;;;;;;6.80;2.72;;;;;;;18.14;44.91;99793.72;5111497;28;20108;-86
2023/10/01 00:19:05;;;;;;;5.55;3.58;;;;;;;18.11;44.39;99769.81;5111346;28;20063;-86
2023/10/01 00:21:31;;;;;;;5.53;3.17;;;;;;;18.56;44.32;99854.13;5111969;27;20023;-86
2023/10/01 00:23:57;;;;;;;7.00;3.15;;;;;;;18.08;44.09;99749.47;5110894;28;20038;-85
2023/10/01 00:26:23;;;;;;;4.05;2.40;;;;;;;18.00;44.86;99757.81;5092413;28;20035;-87
2023/10/01 00:28:51;;;;;;;8.32;3.00;;;;;;;18.24;45.36;99827.94;5110811;28;20027;-87
2023/10/01 00:31:17;;;;;;;5.78;2.60;;;;;;;18.16;45.97;99814.03;5110667;28;20553;-87
2023/10/01 00:33:47;;;;;;;6.85;3.40;;;;;;;17.88;46.23;99796.56;5112019;28;20038;-87
2023/10/01 00:36:13;;;;;;;5.20;2.70;;;;;;;17.75;46.57;99770.47;5110753;28;20512;-88
2023/10/01 00:38:38;;;;;;;9.40;3.17;;;;;;;17.83;46.73;99793.22;5092181;28;20028;-87
2023/10/01 00:41:05;;;;;;;7.75;3.42;;;;;;;17.80;47.25;99803.16;5110299;28;20462;-88
2023/10/01 00:43:31;;;;;;;4.13;2.45;;;;;;;17.72;47.01;99784.81;5119155;27;20488;-88
2023/10/01 00:45:58;;;;;;;8.75;3.60;;;;;;;17.69;47.26;99799.16;5130865;27;20038;-87
2023/10/01 00:48:24;;;;;;;5.50;3.00;;;;;;;17.54;47.67;99779.31;5129069;27;20114;-87
2023/10/01 00:50:52;;;;;;;5.93;3.53;;;;;;;17.80;47.97;99820.03;5131303;27;20160;-88
2023/10/01 00:53:19;;;;;;;10.18;2.47;;;;;;;17.36;48.19;99753.44;5130001;27;20416;-87
2023/10/01 00:55:45;;;;;;;6.82;3.40;;;;;;;17.48;48.62;99778.72;5090139;28;20130;-87
2023/10/01 00:58:10;;;;;;;6.32;3.17;;;;;;;17.37;48.64;99757.84;5090555;28;20531;-87
2023/10/01 01:00:37;;;;;;;5.70;2.85;;;;;;;17.40;48.24;99770.19;5072231;28;20671;-88
2023/10/01 01:06:23;;;;;;;9.02;3.60;;;;;;;17.87;48.32;99857.97;5109492;28;20039;-90
2023/10/01 01:08:54;;;;;;;8.02;2.55;;;;;;;17.51;48.10;99783.91;5110365;28;20031;-89
2023/10/01 01:11:21;;;;;;;11.20;4.88;;;;;;;17.66;48.59;99801.94;5092034;28;20541;-88
2023/10/01 01:13:59;;;;;;;6.70;3.70;;;;;;;17.57;47.91;99750.81;5110466;28;20115;-88
2023/10/01 01:16:48;;;;;;;6.68;3.35;;;;;;;17.74;48.01;99772.28;5111029;28;20100;-89
2023/10/01 01:19:15;;;;;;;5.18;2.40;;;;;;;17.64;47.35;99728.25;5110295;28;20026;-88
2023/10/01 01:21:42;;;;;;;5.32;2.78;;;;;;;17.77;47.21;99741.94;5109873;28;20028;-87
2023/10/01 01:24:09;;;;;;;9.95;3.60;;;;;;;17.81;47.06;99738.19;5110479;28;20035;-88
2023/10/01 01:26:37;;;;;;;5.70;3.28;;;;;;;18.03;46.60;99740.81;5100714;28;20019;-87
2023/10/01 01:29:17;;;;;;;5.53;2.75;;;;;;;18.32;46.59;99782.19;5130703;28;20461;-86
2023/10/01 01:31:45;;;;;;;11.23;3.63;;;;;;;18.57;45.67;99800.63;5130842;28;20034;-86
2023/10/01 01:34:12;;;;;;;6.85;2.42;;;;;;;18.69;45.17;99766.25;5113032;28;20031;-87
2023/10/01 01:36:39;;;;;;;7.30;3.13;;;;;;;18.75;44.60;99757.94;5110566;28;20059;-88
2023/10/01 01:39:32;;;;;;;9.75;2.78;;;;;;;19.42;44.33;99820.66;5092046;28;20036;-87
2023/10/01 01:41:57;;;;;;;5.40;2.80;;;;;;;18.93;44.53;99764.25;5110026;28;20055;-86
2023/10/01 01:44:23;;;;;;;5.13;2.50;;;;;;;19.05;44.08;99769.00;5110011;28;20067;-86
2023/10/01 01:46:59;;;;;;;4.60;2.47;;;;;;;19.09;43.83;99767.91;5110081;28;20028;-87
2023/10/01 01:49:28;;;;;;;8.65;3.45;;;;;;;19.19;43.32;99743.41;5090072;28;20027;-87
2023/10/01 01:51:57;;;;;;;5.82;3.05;;;;;;;19.12;43.61;99735.69;5089442;28;20035;-86
2023/10/01 01:54:27;;;;;;;4.82;2.95;;;;;;;19.27;43.43;99770.63;5089823;28;20054;-86
2023/10/01 01:56:55;;;;;;;3.42;2.35;;;;;;;19.27;44.11;99800.03;5090119;28;20078;-86
2023/10/01 01:59:24;;;;;;;14.23;2.92;;;;;;;19.28;43.92;99789.25;5106414;28;20031;-88
2023/10/01 02:01:51;;;;;;;5.00;3.28;;;;;;;19.17;43.55;99761.31;5110014;28;20542;-87
2023/10/01 02:04:18;;;;;;;4.35;2.35;;;;;;;19.41;43.29;99781.47;5110328;28;20461;-86
2023/10/01 02:06:45;;;;;;;6.43;2.70;;;;;;;19.41;43.02;99748.53;5109319;28;20453;-86
2023/10/01 02:09:20;;;;;;;6.00;2.70;;;;;;;19.49;42.73;99751.66;5092934;28;20504;-86
2023/10/01 02:11:47;;;;;;;4.03;1.95;;;;;;;19.38;42.91;99757.56;5110115;28;20024;-86
2023/10/01 02:14:30;;;;;;;6.03;3.20;;;;;;;19.55;42.34;99758.53;5109766;28;20488;-86
2023/10/01 02:17:03;;;;;;;6.30;2.58;;;;;;;19.47;43.04;99749.06;5110510;28;20114;-86
2023/10/01 02:19:29;;;;;;;14.95;2.47;;;;;;;19.41;43.34;99778.81;5098037;27;20031;-88
2023/10/01 02:22:05;;;;;;;6.93;2.50;;;;;;;19.46;43.09;99766.09;5133853;27;20481;-89
2023/10/01 02:24:45;;;;;;;4.60;2.47;;;;;;;19.41;43.10;99748.53;5115461;27;20385;-88
2023/10/01 02:27:26;;;;;;;7.95;2.95;;;;;;;19.45;43.16;99755.47;5134075;27;20127;-88
2023/10/01 02:32:49;;;;;;;3.05;2.00;;;;;;;19.36;42.70;99730.03;5093428;28;20029;-89
2023/10/01 02:35:36;;;;;;;5.65;2.60;;;;;;;19.27;43.17;99722.47;5093221;28;20028;-88
2023/10/01 02:38:36;;;;;;;4.30;2.20;;;;;;;19.41;43.07;99752.06;5092382;28;20115;-88
2023/10/01 02:40:57;;;;;;;4.68;2.40;;;;;;;19.36;43.31;99754.09;5113164;27;20039;-88
2023/10/01 02:43:33;;;;;;;9.00;3.38;;;;;;;19.46;43.46;99751.81;5129404;27;20475;-87
2023/10/01 02:45:59;;;;;;;4.75;2.08;;;;;;;19.65;42.86;99767.81;5133196;27;20046;-88
2023/10/01 02:48:28;;;;;;;12.55;2.60;;;;;;;19.86;42.34;99749.78;5133413;27;20027;-87
2023/10/01 02:50:54;;;;;;;8.80;2.28;;;;;;;19.66;42.18;99724.94;5132171;27;20410;-88
2023/10/01 02:53:21;;;;;;;7.07;2.97;;;;;;;20.09;42.12;99767.31;5120628;27;20105;-89
2023/10/01 02:55:48;;;;;;;6.35;2.65;;;;;;;20.26;41.90;99814.63;5133320;27;20484;-87
2023/10/01 02:58:27;;;;;;;6.78;2.65;;;;;;;19.65;42.49;99739.25;5133353;27;20031;-86
2023/10/01 03:00:53;;;;;;;3.75;2.13;;;;;;;19.79;42.04;99732.34;5114863;27;20019;-89
2023/10/01 03:03:31;;;;;;;4.03;2.50;;;;;;;20.03;41.70;99773.00;5131295;27;20092;-87
2023/10/01 03:05:58;;;;;;;11.52;2.70;;;;;;;19.72;42.20;99728.22;5133700;27;20027;-88
2023/10/01 03:09:00;;;;;;;3.55;2.78;;;;;;;19.67;42.06;99728.47;5133808;27;20030;-89
2023/10/01 03:11:26;;;;;;;4.20;2.40;;;;;;;19.71;41.94;99729.16;5133402;27;20038;-89
2023/10/01 03:13:54;;;;;;;9.90;3.22;;;;;;;19.78;42.13;99735.97;5132897;27;20465;-87
2023/10/01 03:16:42;;;;;;;4.18;2.88;;;;;;;19.70;42.65;99730.13;5111683;27;20448;-88
2023/10/01 03:19:25;;;;;;;6.75;3.28;;;;;;;19.78;42.40;99731.47;5112857;28;20034;-87
2023/10/01 03:24:41;;;;;;;4.95;2.95;;;;;;;19.89;42.14;99728.22;5112708;28;20028;-87
2023/10/01 03:29:48;;;;;;;6.65;2.78;;;;;;;19.65;42.38;99712.47;5133337;27;20035;-87
2023/10/01 03:32:29;;;;;;;11.48;2.80;;;;;;;19.75;42.35;99733.41;5106765;28;20133;-86
2023/10/01 03:34:55;;;;;;;4.30;1.77;;;;;;;20.00;42.60;99786.53;5112587;27;20023;-87
2023/10/01 03:37:22;;;;;;;4.85;2.97;;;;;;;19.57;42.55;99719.16;5132170;27;20484;-87
2023/10/01 03:39:52;;;;;;;5.30;2.85;;;;;;;19.71;42.04;99713.09;5112051;27;20073;-87
2023/10/01 03:42:18;;;;;;;7.25;2.72;;;;;;;19.95;42.00;99737.75;5122439;27;20035;-87
2023/10/01 03:45:25;;;;;;;3.97;2.35;;;;;;;19.98;41.85;99751.81;5133210;27;20035;-84
2023/10/01 03:47:51;;;;;;;3.92;1.80;;;;;;;19.72;42.54;99723.72;5132199;27;20027;-85
2023/10/01 03:50:21;;;;;;;8.43;2.70;;;;;;;20.18;42.17;99800.78;5121196;27;20031;-87
2023/10/01 03:52:52;;;;;;;5.70;2.88;;;;;;;19.98;41.76;99742.94;5131078;27;20172;-88
2023/10/01 03:55:28;;;;;;;5.97;2.65;;;;;;;19.96;41.72;99723.44;5132277;27;20285;-86
2023/10/01 03:58:08;;;;;;;6.10;2.40;;;;;;;19.93;42.23;99753.03;5132426;27;20412;-85
2023/10/01 04:00:41;;;;;;;6.13;3.08;;;;;;;19.93;42.30;99745.00;5130188;27;20031;-84
2023/10/01 04:03:14;;;;;;;4.00;2.30;;;;;;;19.64;42.54;99739.31;5115080;27;20083;-86
2023/10/01 04:05:46;;;;;;;9.07;2.78;;;;;;;19.63;42.71;99735.78;5112727;27;20051;-85
2023/10/01 04:08:13;;;;;;;8.23;3.75;;;;;;;19.64;42.44;99707.22;5124278;27;20174;-87
2023/10/01 04:10:41;;;;;;;5.13;2.42;;;;;;;19.78;42.53;99760.03;5130170;27;20027;-84
2023/10/01 04:13:20;;;;;;;7.53;3.35;;;;;;;19.88;42.26;99741.69;5132348;27;20023;-86
2023/10/01 04:15:48;;;;;;;6.00;3.15;;;;;;;19.85;41.97;99748.09;5113688;27;20027;-85
2023/10/01 04:23:48;;;;;;;5.38;2.90;;;;;;;20.25;42.14;99802.19;5119491;27;20043;-85
2023/10/01 04:26:17;;;;;;;5.05;2.70;;;;;;;20.13;41.84;99770.72;5112056;28;20622;-85
2023/10/01 04:28:44;;;;;;;5.00;2.75;;;;;;;20.02;41.46;99742.69;5110845;28;20034;-84
2023/10/01 04:31:14;;;;;;;5.15;2.40;;;;;;;20.24;41.63;99813.00;5112197;27;20084;-86
2023/10/01 04:33:43;;;;;;;4.47;2.47;;;;;;;20.07;41.67;99753.16;5110998;28;20027;-85
2023/10/01 04:36:16;;;;;;;4.60;3.05;;;;;;;20.37;41.92;99843.50;5110787;28;20039;-87
2023/10/01 04:38:43;;;;;;;4.22;2.38;;;;;;;20.31;41.77;99825.09;5110856;28;20383;-85
2023/10/01 04:41:25;;;;;;;6.35;2.75;;;;;;;20.05;41.77;99805.94;5111347;27;20589;-86
2023/10/01 04:43:55;;;;;;;8.90;3.40;;;;;;;19.97;41.82;99792.94;5110747;28;20031;-86
2023/10/01 04:46:24;;;;;;;4.35;2.70;;;;;;;20.29;41.80;99816.28;5126206;27;20027;-86
2023/10/01 04:48:51;;;;;;;9.15;2.55;;;;;;;20.25;41.29;99795.94;5131241;27;20068;-88
2023/10/01 04:51:17;;;;;;;9.98;2.40;;;;;;;20.26;41.25;99781.63;5120450;27;20118;-87
2023/10/01 04:53:46;;;;;;;5.97;3.13;;;;;;;20.31;41.11;99785.81;5110860;28;20478;-89
2023/10/01 04:56:20;;;;;;;4.43;2.38;;;;;;;20.63;40.89;99825.19;5110944;28;20082;-91
2023/10/01 04:58:47;;;;;;;7.50;3.25;;;;;;;21.04;40.79;99889.09;5092274;28;20126;-87
2023/10/01 05:01:12;;;;;;;5.55;2.28;;;;;;;20.81;40.66;99807.25;5109949;28;20032;-86
2023/10/01 05:03:39;;;;;;;7.05;2.42;;;;;;;20.79;40.61;99827.91;5110613;28;20110;-85
2023/10/01 05:06:19;;;;;;;9.30;3.50;;;;;;;20.55;40.75;99805.00;5110537;28;20054;-84
2023/10/01 05:08:49;;;;;;;6.22;2.85;;;;;;;20.60;40.53;99790.50;5109801;28;20115;-85
2023/10/01 05:11:16;;;;;;;4.75;2.88;;;;;;;20.93;40.69;99810.09;5110701;28;20061;-84
2023/10/01 05:13:47;;;;;;;7.28;3.03;;;;;;;20.97;40.63;99840.28;5088861;28;20480;-83
2023/10/01 05:16:14;;;;;;;4.47;2.15;;;;;;;20.86;40.52;99824.78;5101402;28;20027;-84
2023/10/01 05:18:45;;;;;;;5.47;2.83;;;;;;;20.95;40.26;99811.84;5099095;28;20028;-84
2023/10/01 05:21:13;;;;;;;7.25;3.13;;;;;;;21.15;39.99;99853.59;5104544;28;20023;-86
2023/10/01 05:23:45;;;;;;;10.90;2.88;;;;;;;21.15;40.15;99851.81;5109799;28;20046;-86
2023/10/01 05:26:11;;;;;;;4.55;2.40;;;;;;;21.35;40.07;99861.41;5113141;28;20032;-85
2023/10/01 05:28:41;;;;;;;6.63;2.92;;;;;;;21.64;39.84;99883.91;5091089;28;20444;-85
2023/10/01 05:31:08;;;;;;;3.13;2.28;;;;;;;21.12;38.96;99790.28;5110428;28;20115;-86
2023/10/01 05:33:37;;;;;;;7.13;2.70;;;;;;;21.62;39.10;99852.75;5110963;28;20042;-84
2023/10/01 05:36:06;;;;;;;5.38;2.72;;;;;;;21.54;39.14;99810.25;5111379;28;20043;-83
2023/10/01 05:38:35;;;;;;;4.32;2.38;;;;;;;21.71;39.08;99828.03;5110277;28;20050;-84
2023/10/01 05:41:03;;;;;;;5.47;2.65;;;;;;;21.80;38.54;99824.81;5110063;28;20127;-83
2023/10/01 05:43:37;;;;;;;5.18;2.35;;;;;;;21.83;38.72;99818.41;5105269;28;20142;-85
2023/10/01 05:46:10;;;;;;;4.28;1.80;;;;;;;22.32;37.70;99866.50;5108447;28;20024;-86
2023/10/01 05:48:39;;;;;;;8.85;3.45;;;;;;;22.35;38.41;99871.69;5097099;28;20035;-85
2023/10/01 05:51:08;;;;;;;4.07;2.65;;;;;;;22.74;37.65;99863.94;5108165;28;20486;-86
2023/10/01 05:53:33;;;;;;;4.30;2.25;;;;;;;22.84;36.86;99861.50;5113878;28;20110;-86
2023/10/01 05:56:07;;;;;;;5.80;2.45;;;;;;;22.93;36.91;99849.31;5113280;28;20074;-84
2023/10/01 05:58:35;;;;;;;5.78;3.38;;;;;;;23.01;36.63;99834.41;5095335;28;20177;-85
2023/10/01 06:01:05;;;;;;;5.45;3.10;;;;;;;23.24;35.68;99840.16;5114874;28;20040;-85
2023/10/01 06:03:32;;;;;;;5.10;3.10;;;;;;;23.52;35.34;99881.41;5115837;28;20049;-89
2023/10/01 06:06:14;;;;;;;7.47;2.40;;;;;;;23.27;35.29;99834.56;5112290;28;20108;-88
2023/10/01 06:08:49;;;;;;;4.60;2.70;;;;;;;23.31;35.25;99821.75;5113921;28;20184;-85
2023/10/01 06:11:16;;;;;;;5.80;2.22;;;;;;;23.43;34.56;99807.50;5114243;28;20032;-86
2023/10/01 06:13:51;;;;;;;12.30;2.22;;;;;;;23.56;34.57;99837.16;5113526;28;20036;-86
2023/10/01 06:16:26;;;;;;;5.25;2.85;;;;;;;23.99;34.38;99801.06;5095463;28;20032;-85
2023/10/01 06:18:56;;;;;;;;;;;;;;;24.75;33.92;99894.63;5113629;28;20038;-86
2023/10/01 06:21:25;;;;;;;3.22;1.98;;;;;;;24.20;33.35;99842.69;5113218;28;19960;-85
2023/10/01 06:23:52;;;;;;;4.95;2.47;;;;;;;24.31;33.69;99821.28;5113261;28;20117;-85
2023/10/01 06:26:37;;;;;;;9.57;2.53;;;;;;;24.10;33.17;99804.75;5113339;28;20032;-86
2023/10/01 06:29:13;;;;;;;4.75;2.00;;;;;;;24.15;33.57;99830.53;5094067;28;20031;-86
2023/10/01 06:31:52;;;;;;;4.70;2.65;;;;;;;24.18;33.95;99838.41;5092915;28;20036;-85
2023/10/01 06:34:23;;;;;;;4.80;2.08;;;;;;;24.39;33.61;99855.78;5092702;28;20035;-85
2023/10/01 06:37:05;;;;;;;5.70;2.90;;;;;;;24.64;33.22;99873.81;5093046;28;20481;-85
2023/10/01 06:39:35;;;;;;;8.38;2.42;;;;;;;24.48;33.13;99897.38;5094507;28;20024;-87
2023/10/01 06:42:19;;;;;;;6.75;3.08;;;;;;;23.85;33.54;99858.59;5088046;28;20034;-85
2023/10/01 06:44:48;;;;;;;9.90;2.47;;;;;;;23.83;34.32;99857.81;5103568;28;20496;-85
2023/10/01 06:47:15;;;;;;;5.15;2.65;;;;;;;23.80;33.75;99879.56;5105936;27;20087;-88
2023/10/01 06:49:57;;;;;;;3.30;2.53;;;;;;;23.70;33.81;99844.31;5095390;27;20027;-86
2023/10/01 06:52:32;;;;;;;7.53;3.17;;;;;;;23.84;34.01;99870.31;5105669;27;20034;-90
2023/10/01 06:55:01;;;;;;;7.00;2.45;;;;;;;23.60;34.34;99876.38;5083668;28;20131;-88
2023/10/01 06:57:28;;;;;;;3.17;2.70;;;;;;;23.38;34.34;99868.84;5111113;27;20035;-85
2023/10/01 06:59:56;;;;;;;4.15;2.17;;;;;;;23.47;34.42;99881.72;5112684;28;20038;-87
2023/10/01 07:02:25;;;;;;;8.55;2.17;;;;;;;23.39;35.02;99889.44;5086729;28;20115;-88
2023/10/01 07:04:56;;;;;;;5.80;2.80;;;;;;;23.24;35.11;99841.00;5095786;28;20060;-87
2023/10/01 07:07:24;;;;;;;4.15;2.55;;;;;;;23.62;35.24;99865.50;5094489;28;20131;-87
2023/10/01 07:09:53;;;;;;;11.77;2.75;;;;;;;23.86;34.39;99922.28;5078614;28;20157;-85
2023/10/01 07:12:19;;;;;;;4.53;2.42;;;;;;;23.47;35.59;99888.94;5075063;28;20021;-86
2023/10/01 07:14:45;;;;;;;7.13;2.10;;;;;;;23.52;35.37;99890.31;5102271;28;20036;-87
2023/10/01 07:17:15;;;;;;;4.13;2.88;;;;;;;23.74;35.39;99927.50;5093094;28;20042;-85
2023/10/01 07:19:59;;;;;;;4.00;2.42;;;;;;;23.52;35.54;99921.78;5091336;28;20057;-86
2023/10/01 07:22:31;;;;;;;4.93;2.25;;;;;;;23.63;36.35;99916.53;5104028;28;20513;-85
2023/10/01 07:24:59;;;;;;;4.05;2.20;;;;;;;23.28;35.42;99851.56;5078341;28;20040;-84
2023/10/01 07:27:26;;;;;;;6.72;3.45;;;;;;;23.67;36.00;99906.47;5078547;28;20029;-85
2023/10/01 07:29:54;;;;;;;10.30;2.67;;;;;;;23.55;35.51;99884.75;5072027;28;20032;-83
2023/10/01 07:32:22;;;;;;;9.77;2.90;;;;;;;23.28;35.09;99892.81;5087494;28;20039;-85
2023/10/01 07:34:55;;;;;;;6.22;3.13;;;;;;;23.31;35.74;99876.47;5091603;28;20031;-85
2023/10/01 07:37:23;;;;;;;3.97;2.33;;;;;;;23.56;35.63;99886.47;5082276;28;20036;-85
2023/10/01 07:39:55;;;;;;;5.75;2.47;;;;;;;23.55;35.21;99918.88;5071176;28;20044;-86
2023/10/01 07:42:25;;;;;;;2.72;1.85;;;;;;;23.70;35.08;99939.41;5072081;28;20111;-86
2023/10/01 07:44:52;;;;;;;5.45;2.78;;;;;;;23.67;35.62;99901.94;5071641;28;20029;-86
2023/10/01 07:47:28;;;;;;;5.78;2.72;;;;;;;23.61;35.46;99913.09;5070667;28;20532;-85
2023/10/01 07:49:57;;;;;;;;;;;;;;;23.64;35.39;99965.91;5072197;28;20032;-84
2023/10/01 07:52:36;;;;;;;4.95;2.40;;;;;;;23.38;35.15;99920.84;5071777;28;19946;-85
2023/10/01 07:55:29;;;;;;;5.55;2.88;;;;;;;23.37;35.22;99934.41;5107048;27;20055;-84
2023/10/01 07:57:49;;;;;;;4.32;2.30;;;;;;;23.37;35.04;99894.03;5070540;28;20043;-84
2023/10/01 08:00:26;;;;;;;4.85;2.42;;;;;;;23.59;34.63;99920.44;5111654;27;20028;-85
2023/10/01 08:05:38;;;;;;;3.53;2.10;;;;;;;23.52;35.10;99922.63;5094875;28;20078;-86
2023/10/01 08:08:08;;;;;;;3.47;2.60;;;;;;;24.24;35.21;99992.47;5082657;28;20040;-83
2023/10/01 08:10:37;;;;;;;5.97;2.88;;;;;;;24.12;34.77;99913.28;5084067;28;20514;-83
2023/10/01 08:13:07;;;;;;;4.15;2.63;;;;;;;24.46;34.72;99945.16;5076042;28;20554;-80
2023/10/01 08:15:40;;;;;;;4.68;3.55;;;;;;;24.20;34.68;99887.66;5087439;28;20032;-82
2023/10/01 08:21:00;;;;;;;28.10;15.90;;;;;;;24.42;35.18;99973.28;5077463;28;20043;-83
2023/10/01 08:23:27;;;;;;;207.95;94.80;;;;;;;24.70;34.99;99976.81;5094214;28;20037;-84
2023/10/01 08:25:55;;;;;;;43.50;24.65;;;;;;;24.49;34.67;99953.91;5083530;28;20047;-84
2023/10/01 08:30:49;;;;;;;8.68;5.65;;;;;;;24.29;34.86;99975.97;5080839;28;20032;-81
2023/10/01 08:33:32;;;;;;;8.02;4.88;;;;;;;24.28;34.61;99958.94;5075695;28;20125;-83
2023/10/01 08:36:12;;;;;;;11.48;2.65;;;;;;;24.36;34.67;99947.66;5091929;28;20117;-84
2023/10/01 08:38:39;;;;;;;10.05;2.72;;;;;;;24.64;34.46;99965.50;5092890;28;20081;-84
2023/10/01 08:41:06;;;;;;;39.50;15.73;;;;;;;24.67;34.42;99956.34;5093885;28;20034;-83
2023/10/01 08:43:36;;;;;;;48.40;25.85;;;;;;;24.72;34.48;99956.88;5074424;28;20479;-83
2023/10/01 08:46:15;;;;;;;12.50;5.75;;;;;;;24.54;34.06;99982.38;5080168;28;20032;-83
2023/10/01 08:48:43;;;;;;;4.80;2.88;;;;;;;24.43;33.98;99932.75;5106006;28;20039;-84
2023/10/01 08:51:11;;;;;;;11.50;4.95;;;;;;;24.48;33.80;99898.28;5126500;28;20175;-91
2023/10/01 08:53:43;;;;;;;63.28;36.15;;;;;;;25.19;33.89;99928.34;5122406;28;20028;-81
2023/10/01 08:56:17;;;;;;;115.80;61.00;;;;;;;25.57;33.04;99931.09;5110202;27;20514;-81
2023/10/01 08:58:49;;;;;;;13.93;5.30;;;;;;;25.33;32.77;99938.19;5109995;28;20023;-82
2023/10/01 09:01:21;;;;;;;5.97;2.50;;;;;;;25.00;32.92;99907.22;5109980;28;20065;-81
2023/10/01 09:03:55;;;;;;;4.07;2.35;;;;;;;25.21;32.69;99925.53;5097610;28;20040;-83
2023/10/01 09:06:28;;;;;;;3.72;2.38;;;;;;;25.35;33.11;99919.19;5104480;28;20027;-83
2023/10/01 09:08:59;;;;;;;4.78;2.60;;;;;;;25.59;32.69;99931.84;5110578;28;20039;-82
2023/10/01 09:11:50;;;;;;;5.43;2.78;;;;;;;25.46;32.32;99913.84;5117216;28;20108;-82
2023/10/01 09:14:19;;;;;;;6.93;2.30;;;;;;;25.38;32.35;99894.66;5125298;28;20035;-83
2023/10/01 09:16:46;;;;;;;6.28;2.45;;;;;;;25.81;32.77;99934.66;5131015;28;20026;-83
2023/10/01 09:25:20;;;;;;;4.78;2.35;;;;;;;26.03;30.88;99879.03;5120171;28;20927;-82
2023/10/01 09:27:57;;;;;;;3.80;2.17;;;;;;;25.95;31.79;99921.94;5114721;28;20070;-83
2023/10/01 09:30:26;;;;;;;3.85;1.95;;;;;;;25.96;31.80;99915.56;5130560;27;20413;-82
2023/10/01 09:33:05;;;;;;;5.57;3.03;;;;;;;25.99;31.70;99937.84;5094093;28;20082;-82
2023/10/01 09:35:40;;;;;;;4.25;3.08;;;;;;;26.44;31.82;99972.28;5106349;27;20085;-81
2023/10/01 09:38:19;;;;;;;4.95;2.33;;;;;;;26.28;31.77;99940.19;5076085;28;20390;-83
2023/10/01 09:40:46;;;;;;;8.48;3.15;;;;;;;26.31;31.36;99902.09;5076239;28;20198;-83
2023/10/01 09:43:24;;;;;;;3.20;2.17;;;;;;;26.11;31.38;99898.22;5093492;28;20031;-83
2023/10/01 09:45:54;;;;;;;5.07;2.63;;;;;;;26.12;31.77;99893.66;5106396;27;20047;-80
2023/10/01 09:48:30;;;;;;;6.30;2.65;;;;;;;26.19;31.94;99908.44;5093408;28;20111;-82
2023/10/01 09:51:08;;;;;;;3.53;2.38;;;;;;;26.84;31.12;99960.25;5093405;27;20032;-83
2023/10/01 09:53:56;;;;;;;3.78;2.83;;;;;;;26.60;30.91;99915.16;5092710;28;20722;-82
2023/10/01 09:56:26;;;;;;;6.25;3.40;;;;;;;26.60;30.66;99926.84;5113052;27;20118;-83
2023/10/01 09:59:08;;;;;;;4.78;3.00;;;;;;;26.77;31.04;99928.25;5105928;27;20028;-84
2023/10/01 10:01:36;;;;;;;5.18;2.67;;;;;;;26.93;31.23;99908.94;5110946;28;20404;-86
2023/10/01 10:04:04;;;;;;;5.30;2.38;;;;;;;27.00;30.52;99860.59;5122773;27;20131;-85
2023/10/01 10:06:31;;;;;;;4.28;2.38;;;;;;;26.97;30.14;99918.56;5099757;28;20027;-86
2023/10/01 10:09:05;;;;;;;5.20;3.15;;;;;;;26.66;30.69;99892.22;5095421;28;20115;-85
2023/10/01 10:11:36;;;;;;;3.47;2.33;;;;;;;27.33;30.25;99959.06;5108138;27;20024;-88
2023/10/01 10:14:28;;;;;;;9.85;2.72;;;;;;;27.16;30.51;99915.22;5093394;27;20046;-86
2023/10/01 10:17:00;;;;;;;5.47;2.42;;;;;;;26.78;29.97;99886.66;5109219;27;20032;-85
2023/10/01 10:19:31;;;;;;;4.88;2.88;;;;;;;26.71;30.57;99887.28;5101734;28;20016;-86
2023/10/01 10:22:09;;;;;;;8.70;2.60;;;;;;;27.20;30.10;99939.34;5095934;27;20031;-84
2023/10/01 10:24:37;;;;;;;8.35;2.45;;;;;;;26.79;30.32;99898.38;5103011;27;20118;-84
2023/10/01 10:27:15;;;;;;;5.22;2.33;;;;;;;26.53;30.20;99908.53;5099864;27;20485;-84
2023/10/01 10:29:47;;;;;;;5.80;3.65;;;;;;;26.85;30.74;99935.78;5112080;28;20052;-83
2023/10/01 10:32:24;;;;;;;5.25;2.60;;;;;;;26.80;30.32;99884.72;5113962;27;20035;-84
2023/10/01 10:35:04;;;;;;;8.48;2.63;;;;;;;27.17;30.51;99937.72;5112669;28;20046;-84
2023/10/01 10:37:39;;;;;;;5.00;2.53;;;;;;;27.41;30.51;99942.19;5094079;28;20421;-84
2023/10/01 10:43:02;;;;;;;5.30;2.88;;;;;;;26.88;30.05;99900.34;5071244;28;20044;-85
2023/10/01 10:45:42;;;;;;;6.53;3.17;;;;;;;26.72;29.86;99864.66;5069518;28;20498;-86
2023/10/01 10:48:09;;;;;;;7.65;2.78;;;;;;;27.00;30.34;99870.56;5076718;28;20051;-84
2023/10/01 10:50:41;;;;;;;5.05;2.63;;;;;;;27.09;30.57;99922.09;5090183;28;20122;-85
2023/10/01 10:53:15;;;;;;;6.35;2.58;;;;;;;26.62;30.65;99854.56;5071311;28;20079;-85
2023/10/01 10:56:10;;;;;;;5.10;2.60;;;;;;;26.86;29.26;99877.94;5089850;28;20052;-85
2023/10/01 10:59:03;;;;;;;5.97;3.30;;;;;;;26.86;30.17;99872.53;4990207;28;20137;-87
2023/10/01 11:01:46;;;;;;;4.03;2.45;;;;;;;27.13;30.08;99868.59;4990696;28;20043;-83
2023/10/01 11:04:14;;;;;;;6.13;3.45;;;;;;;26.95;29.87;99852.00;4977067;28;20133;-87
2023/10/01 11:06:42;;;;;;;7.00;3.17;;;;;;;27.21;29.77;99866.13;4971326;28;20050;-85
2023/10/01 11:12:08;;;;;;;5.97;3.00;;;;;;;27.15;30.23;99851.22;4972163;28;20157;-86
2023/10/01 11:14:37;;;;;;;6.30;2.70;;;;;;;27.33;29.29;99880.53;4972332;28;20049;-85
2023/10/01 11:17:06;;;;;;;10.60;3.35;;;;;;;27.55;29.05;99857.09;4971420;28;20042;-86
2023/10/01 11:19:36;;;;;;;5.65;2.63;;;;;;;27.66;28.61;99836.22;4987332;28;20054;-84
2023/10/01 11:22:07;;;;;;;8.00;2.70;;;;;;;27.67;28.30;99831.66;4998388;28;20037;-90
2023/10/01 11:24:35;;;;;;;5.13;2.42;;;;;;;28.21;28.71;99909.31;5014924;28;20436;-90
2023/10/01 11:27:22;;;;;;;5.05;2.55;;;;;;;27.95;29.26;99830.19;4996935;28;20499;-88
2023/10/01 11:30:42;;;;;;;;;;;;;;;;;;;;;
2023/10/01 11:38:38;;;;;;;5.38;2.15;;;;;;;27.86;28.16;99795.72;5072348;28;20437;-89
2023/10/01 11:41:38;;;;;;;7.03;2.65;;;;;;;27.78;27.59;99809.09;5106301;27;20023;-90
2023/10/01 11:44:05;;;;;;;4.57;2.35;;;;;;;27.63;28.34;99814.78;5102671;28;20039;-88
2023/10/01 11:46:58;;;;;;;8.55;3.25;;;;;;;27.43;28.05;99815.63;5111174;28;20035;-89
2023/10/01 11:49:37;;;;;;;5.82;2.80;;;;;;;27.71;28.90;99833.09;5111253;28;20028;-87
2023/10/01 11:52:25;;;;;;;4.22;2.67;;;;;;;27.80;28.30;99807.09;5092403;28;20031;-88
2023/10/01 11:54:54;;;;;;;4.70;3.03;;;;;;;27.73;28.00;99820.31;5109610;27;20052;-85
2023/10/01 11:57:25;;;;;;;4.13;2.47;;;;;;;27.65;28.82;99804.72;5091657;28;20020;-85
2023/10/01 11:59:55;;;;;;;6.35;2.22;;;;;;;28.19;27.88;99801.94;5099854;28;20051;-86
2023/10/01 12:02:33;;;;;;;4.00;2.42;;;;;;;28.63;28.34;99810.78;5109182;28;20106;-88
2023/10/01 12:05:48;;;;;;;;;;;;;;;;;;;;;
2023/10/01 12:08:18;;;;;;;3.50;2.55;;;;;;;28.71;26.71;99810.09;5109828;27;20042;-87
2023/10/01 12:10:51;;;;;;;4.30;2.63;;;;;;;28.86;27.37;99827.72;5111624;28;20051;-86
2023/10/01 12:13:21;;;;;;;4.80;2.30;;;;;;;28.52;26.88;99803.56;5123503;27;20042;-87
2023/10/01 12:15:52;;;;;;;8.65;3.22;;;;;;;28.64;27.13;99785.38;5130527;27;20034;-90
2023/10/01 12:18:36;;;;;;;6.22;2.35;;;;;;;28.99;27.15;99813.88;5132036;27;20027;-89
2023/10/01 12:21:24;;;;;;;5.70;3.33;;;;;;;28.74;26.22;99805.25;5113660;27;20562;-88
2023/10/01 12:23:51;;;;;;;8.00;2.83;;;;;;;28.77;26.29;99792.41;5115478;27;20443;-90
2023/10/01 12:27:10;;;;;;;4.45;2.38;;;;;;;28.42;26.40;99797.22;5093444;28;20030;-89
2023/10/01 12:29:53;;;;;;;4.82;3.13;;;;;;;28.50;26.44;99805.56;5093360;27;20063;-91
2023/10/01 12:32:21;;;;;;;3.55;2.42;;;;;;;28.23;25.46;99800.69;5130499;27;20061;-89
2023/10/01 12:34:57;;;;;;;5.32;3.05;;;;;;;28.11;25.83;99797.19;5090786;28;20088;-91
2023/10/01 12:37:38;;;;;;;6.22;3.75;;;;;;;28.40;26.82;99816.34;5096295;27;20027;-88
2023/10/01 12:40:16;;;;;;;7.30;3.70;;;;;;;28.00;29.01;99775.59;5098549;27;20458;-87
2023/10/01 12:43:02;;;;;;;5.35;2.97;;;;;;;27.80;28.06;99759.16;5130910;27;20035;-92
2023/10/01 12:45:33;;;;;;;3.95;2.15;;;;;;;27.65;28.34;99765.91;5127061;27;20421;-85